createdAt,value
2019-02-22T00:02:31.462Z,96906.00
2019-02-22T00:05:04.012Z,96915.00
2019-02-22T00:07:36.153Z,96904.00
2019-02-22T00:10:09.737Z,96907.00
2019-02-22T00:12:41.868Z,96911.00
2019-02-22T00:15:13.990Z,96915.00
2019-02-22T00:17:46.460Z,96904.00
2019-02-22T00:20:18.995Z,96908.00
2019-02-22T00:22:50.966Z,96898.00
2019-02-22T00:25:22.917Z,96901.00
2019-02-22T00:27:54.800Z,96902.00
2019-02-22T00:30:26.749Z,96904.00
2019-02-22T00:32:58.882Z,96913.00
2019-02-22T00:35:30.835Z,96902.00
2019-02-22T00:38:02.965Z,96899.00
2019-02-22T00:40:35.651Z,96908.00
2019-02-22T00:43:08.135Z,96897.00
2019-02-22T00:45:40.282Z,96885.00
2019-02-22T00:48:12.809Z,96886.00
2019-02-22T00:50:44.668Z,96895.00
2019-02-22T00:53:16.496Z,96892.00
2019-02-22T00:55:49.297Z,96897.00
2019-02-22T00:58:21.160Z,96894.00
2019-02-22T01:00:53.414Z,96896.00
2019-02-22T01:03:25.622Z,96898.00
2019-02-22T01:05:57.804Z,96899.00
2019-02-22T01:08:29.753Z,96901.00
2019-02-22T01:11:02.445Z,96888.00
2019-02-22T01:13:34.975Z,96893.00
2019-02-22T01:16:07.513Z,96890.00
2019-02-22T01:18:39.577Z,96891.00
2019-02-22T01:21:12.296Z,96886.00
2019-02-22T01:23:44.117Z,96886.00
2019-02-22T01:26:16.250Z,96881.00
2019-02-22T01:28:48.687Z,96879.00
2019-02-22T01:31:20.709Z,96883.00
2019-02-22T01:33:54.200Z,96872.00
2019-02-22T01:36:26.640Z,96872.00
2019-02-22T01:38:58.459Z,96877.00
2019-02-22T01:41:30.324Z,96874.00
2019-02-22T01:44:02.154Z,96866.00
2019-02-22T01:46:34.444Z,96877.00
2019-02-22T01:49:06.283Z,96876.00
2019-02-22T01:51:38.166Z,96867.00
2019-02-22T01:54:10.326Z,96867.00
2019-02-22T01:56:42.190Z,96863.00
2019-02-22T01:59:15.931Z,96860.00
2019-02-22T02:01:48.426Z,96868.00
2019-02-22T02:04:20.640Z,96857.00
2019-02-22T02:06:52.607Z,96867.00
2019-02-22T02:09:24.774Z,96867.00
2019-02-22T02:11:57.032Z,96880.00
2019-02-22T02:14:29.010Z,96878.00
2019-02-22T02:17:00.973Z,96874.00
2019-02-22T02:19:33.529Z,96871.00
2019-02-22T02:22:05.495Z,96879.00
2019-02-22T02:24:37.669Z,96875.00
2019-02-22T02:27:09.626Z,96880.00
2019-02-22T02:29:41.506Z,96882.00
2019-02-22T02:32:13.349Z,96885.00
2019-02-22T02:34:45.214Z,96892.00
2019-02-22T02:37:17.339Z,96896.00
2019-02-22T02:39:49.638Z,96904.00
2019-02-22T02:42:21.906Z,96892.00
2019-02-22T02:44:54.270Z,96901.00
2019-02-22T02:47:26.110Z,96899.00
2019-02-22T02:49:57.988Z,96898.00
2019-02-22T02:52:30.127Z,96897.00
2019-02-22T02:55:01.997Z,96894.00
2019-02-22T02:57:34.106Z,96903.00
2019-02-22T03:00:07.717Z,96900.00
2019-02-22T03:02:39.546Z,96890.00
2019-02-22T03:05:11.415Z,96892.00
2019-02-22T03:07:48.081Z,96904.00
2019-02-22T03:10:20.007Z,96892.00
2019-02-22T03:12:52.152Z,96890.00
2019-02-22T03:15:24.297Z,96899.00
2019-02-22T03:17:56.535Z,96905.00
2019-02-22T03:20:28.405Z,96911.00
2019-02-22T03:23:00.361Z,96916.00
2019-02-22T03:25:32.523Z,96917.00
2019-02-22T03:28:04.367Z,96920.00
2019-02-22T03:30:36.558Z,96916.00
2019-02-22T03:33:08.825Z,96925.00
2019-02-22T03:35:40.949Z,96925.00
2019-02-22T03:38:12.900Z,96931.00
2019-02-22T03:40:44.784Z,96925.00
2019-02-22T03:43:16.720Z,96931.00
2019-02-22T03:45:48.890Z,96940.00
2019-02-22T03:48:21.218Z,96938.00
2019-02-22T03:50:53.218Z,96946.00
2019-02-22T03:53:28.988Z,96950.00
2019-02-22T03:56:00.834Z,96943.00
2019-02-22T03:58:33.004Z,96946.00
2019-02-22T04:01:04.973Z,96949.00
2019-02-22T04:03:37.025Z,96947.00
2019-02-22T04:06:09.267Z,96951.00
2019-02-22T04:08:41.132Z,96957.00
2019-02-22T04:11:13.615Z,96962.00
2019-02-22T04:13:45.778Z,96971.00
2019-02-22T04:16:17.637Z,96970.00
2019-02-22T04:18:50.178Z,96961.00
2019-02-22T04:21:22.017Z,96977.00
2019-02-22T04:23:54.045Z,96978.00
2019-02-22T04:26:26.193Z,96969.00
2019-02-22T04:28:58.077Z,96982.00
2019-02-22T04:31:29.921Z,96971.00
2019-02-22T04:34:02.464Z,96981.00
2019-02-22T04:36:34.578Z,96979.00
2019-02-22T04:39:07.683Z,96990.00
2019-02-22T04:41:39.523Z,96983.00
2019-02-22T04:44:11.544Z,96993.00
2019-02-22T04:46:43.377Z,96992.00
2019-02-22T04:49:15.880Z,96986.00
2019-02-22T04:51:47.737Z,96982.00
2019-02-22T04:54:19.612Z,96983.00
2019-02-22T04:56:51.720Z,96975.00
2019-02-22T04:59:23.657Z,96976.00
2019-02-22T05:01:55.849Z,96976.00
2019-02-22T05:04:28.004Z,96979.00
2019-02-22T05:06:59.835Z,96976.00
2019-02-22T05:09:31.999Z,96983.00
2019-02-22T05:12:10.943Z,96979.00
2019-02-22T05:14:37.391Z,96997.00
2019-02-22T05:17:09.227Z,96991.00
2019-02-22T05:19:41.380Z,96991.00
2019-02-22T05:22:13.216Z,96985.00
2019-02-22T05:24:45.085Z,96990.00
2019-02-22T05:27:17.224Z,96989.00
2019-02-22T05:29:49.378Z,96991.00
2019-02-22T05:32:22.010Z,96981.00
2019-02-22T05:34:53.895Z,96983.00
2019-02-22T05:37:26.143Z,96981.00
2019-02-22T05:39:58.117Z,96985.00
2019-02-22T05:42:31.089Z,96991.00
2019-02-22T05:45:03.308Z,97001.00
2019-02-22T05:47:35.190Z,97004.00
2019-02-22T05:50:07.919Z,97013.00
2019-02-22T05:52:40.207Z,97019.00
2019-02-22T05:55:12.040Z,97016.00
2019-02-22T05:57:43.929Z,97025.00
2019-02-22T06:00:16.907Z,97020.00
2019-02-22T06:02:48.847Z,97017.00
2019-02-22T06:05:20.682Z,97024.00
2019-02-22T06:07:52.682Z,97023.00
2019-02-22T06:10:24.529Z,97018.00
2019-02-22T06:12:56.841Z,97022.00
2019-02-22T06:15:31.401Z,97031.00
2019-02-22T06:18:02.555Z,97038.00
2019-02-22T06:20:34.813Z,97042.00
2019-02-22T06:23:06.989Z,97042.00
2019-02-22T06:25:38.850Z,97042.00
2019-02-22T06:28:10.856Z,97043.00
2019-02-22T06:30:43.072Z,97046.00
2019-02-22T06:33:14.981Z,97043.00
2019-02-22T06:35:46.828Z,97045.00
2019-02-22T06:38:19.093Z,97056.00
2019-02-22T06:40:51.452Z,97062.00
2019-02-22T06:43:23.376Z,97060.00
2019-02-22T06:45:55.229Z,97064.00
2019-02-22T06:48:27.142Z,97058.00
2019-02-22T06:50:59.291Z,97063.00
2019-02-22T06:53:31.261Z,97072.00
2019-02-22T06:56:03.105Z,97070.00
2019-02-22T06:58:35.024Z,97074.00
2019-02-22T07:01:07.685Z,97073.00
2019-02-22T07:03:39.580Z,97070.00
2019-02-22T07:06:11.409Z,97079.00
2019-02-22T07:08:43.606Z,97080.00
2019-02-22T07:11:37.955Z,97083.00
2019-02-22T07:14:10.345Z,97095.00
2019-02-22T07:16:42.536Z,97090.00
2019-02-22T07:19:14.405Z,97090.00
2019-02-22T07:21:52.735Z,97105.00
2019-02-22T07:24:20.234Z,97107.00
2019-02-22T07:26:52.190Z,97109.00
2019-02-22T07:29:24.751Z,97111.00
2019-02-22T07:32:05.244Z,97105.00
2019-02-22T07:34:30.535Z,97114.00
2019-02-22T07:37:02.683Z,97105.00
2019-02-22T07:39:34.955Z,97105.00
2019-02-22T07:42:06.824Z,97116.00
2019-02-22T07:44:38.736Z,97110.00
2019-02-22T07:47:10.581Z,97118.00
2019-02-22T07:49:42.454Z,97116.00
2019-02-22T07:52:14.308Z,97132.00
2019-02-22T07:54:47.084Z,97120.00
2019-02-22T07:57:18.885Z,97123.00
2019-02-22T07:59:51.279Z,97125.00
2019-02-22T08:02:23.142Z,97125.00
2019-02-22T08:04:55.259Z,97132.00
2019-02-22T08:07:27.097Z,97138.00
2019-02-22T08:09:58.996Z,97131.00
2019-02-22T08:12:30.931Z,97135.00
2019-02-22T08:15:02.822Z,97134.00
2019-02-22T08:17:34.959Z,97133.00
2019-02-22T08:20:07.728Z,97138.00
2019-02-22T08:22:39.578Z,97133.00
2019-02-22T08:25:11.507Z,97137.00
2019-02-22T08:27:53.046Z,97139.00
2019-02-22T08:30:17.065Z,97151.00
2019-02-22T08:32:48.974Z,97144.00
2019-02-22T08:35:20.873Z,97146.00
2019-02-22T08:37:52.791Z,97155.00
2019-02-22T08:40:25.472Z,97148.00
2019-02-22T08:42:57.669Z,97145.00
2019-02-22T08:45:29.498Z,97156.00
2019-02-22T08:48:01.384Z,97153.00
2019-02-22T08:50:33.482Z,97162.00
2019-02-22T08:53:05.907Z,97160.00
2019-02-22T08:55:37.864Z,97171.00
2019-02-22T08:58:09.751Z,97168.00
2019-02-22T09:00:41.629Z,97164.00
2019-02-22T09:03:13.534Z,97163.00
2019-02-22T09:05:45.378Z,97163.00
2019-02-22T09:08:17.687Z,97167.00
2019-02-22T09:11:00.237Z,97176.00
2019-02-22T09:13:23.426Z,97176.00
2019-02-22T09:15:55.297Z,97169.00
2019-02-22T09:18:27.317Z,97180.00
2019-02-22T09:20:59.184Z,97189.00
2019-02-22T09:23:31.377Z,97183.00
2019-02-22T09:26:03.242Z,97197.00
2019-02-22T09:28:35.194Z,97195.00
2019-02-22T09:31:07.313Z,97193.00
2019-02-22T09:33:39.183Z,97197.00
2019-02-22T09:36:11.327Z,97196.00
2019-02-22T09:38:43.328Z,97202.00
2019-02-22T09:41:15.847Z,97201.00
2019-02-22T09:43:55.396Z,97212.00
2019-02-22T09:46:21.373Z,97213.00
2019-02-22T09:48:53.614Z,97217.00
2019-02-22T09:51:26.646Z,97221.00
2019-02-22T09:53:59.002Z,97225.00
2019-02-22T09:56:31.123Z,97229.00
2019-02-22T09:59:04.002Z,97228.00
2019-02-22T10:01:36.446Z,97229.00
2019-02-22T10:04:09.214Z,97233.00
2019-02-22T10:06:41.335Z,97238.00
2019-02-22T10:09:13.357Z,97236.00
2019-02-22T10:11:45.225Z,97233.00
2019-02-22T10:14:17.108Z,97230.00
2019-02-22T10:16:48.962Z,97233.00
2019-02-22T10:19:20.848Z,97242.00
2019-02-22T10:21:52.688Z,97246.00
2019-02-22T10:24:24.583Z,97244.00
2019-02-22T10:26:56.438Z,97249.00
2019-02-22T10:29:28.323Z,97249.00
2019-02-22T10:32:00.582Z,97253.00
2019-02-22T10:34:32.449Z,97256.00
2019-02-22T10:37:05.016Z,97263.00
2019-02-22T10:39:37.812Z,97255.00
2019-02-22T10:42:10.266Z,97267.00
2019-02-22T10:44:42.146Z,97264.00
2019-02-22T10:47:14.674Z,97268.00
2019-02-22T10:49:46.576Z,97263.00
2019-02-22T10:52:18.583Z,97270.00
2019-02-22T10:54:50.986Z,97272.00
2019-02-22T10:57:23.113Z,97271.00
2019-02-22T10:59:55.341Z,97266.00
2019-02-22T11:02:27.478Z,97268.00
2019-02-22T11:04:59.357Z,97269.00
2019-02-22T11:07:31.507Z,97263.00
2019-02-22T11:10:03.441Z,97267.00
2019-02-22T11:12:35.291Z,97271.00
2019-02-22T11:15:09.270Z,97266.00
2019-02-22T11:17:41.713Z,97268.00
2019-02-22T11:20:14.085Z,97274.00
2019-02-22T11:22:47.053Z,97275.00
2019-02-22T11:25:20.740Z,97271.00
2019-02-22T11:27:52.647Z,97260.00
2019-02-22T11:30:24.929Z,97265.00
2019-02-22T11:32:57.160Z,97260.00
2019-02-22T11:35:29.276Z,97261.00
2019-02-22T11:38:02.111Z,97264.00
2019-02-22T11:40:34.286Z,97260.00
2019-02-22T11:43:06.303Z,97266.00
2019-02-22T11:45:38.418Z,97271.00
2019-02-22T11:48:10.662Z,97268.00
2019-02-22T11:50:42.590Z,97270.00
2019-02-22T11:53:15.498Z,97270.00
2019-02-22T11:55:47.392Z,97282.00
2019-02-22T11:58:20.279Z,97269.00
2019-02-22T12:00:52.442Z,97273.00
2019-02-22T12:03:25.217Z,97277.00
2019-02-22T12:05:57.244Z,97272.00
2019-02-22T12:08:29.492Z,97270.00
2019-02-22T12:11:01.340Z,97260.00
2019-02-22T12:13:33.342Z,97254.00
2019-02-22T12:16:05.220Z,97261.00
2019-02-22T12:18:37.123Z,97261.00
2019-02-22T12:21:10.025Z,97266.00
2019-02-22T12:23:42.425Z,97263.00
2019-02-22T12:26:14.537Z,97274.00
2019-02-22T12:28:46.555Z,97274.00
2019-02-22T12:31:19.299Z,97275.00
2019-02-22T12:33:51.467Z,97273.00
2019-02-22T12:36:23.688Z,97282.00
2019-02-22T12:38:56.055Z,97281.00
2019-02-22T12:41:27.928Z,97279.00
2019-02-22T12:44:00.109Z,97282.00
2019-02-22T12:46:32.329Z,97290.00
2019-02-22T12:49:04.360Z,97296.00
2019-02-22T12:51:36.948Z,97298.00
2019-02-22T12:54:08.824Z,97288.00
2019-02-22T12:56:58.141Z,97289.00
2019-02-22T12:59:14.412Z,97281.00
2019-02-22T13:01:46.693Z,97289.00
2019-02-22T13:04:18.578Z,97301.00
2019-02-22T13:06:50.779Z,97295.00
2019-02-22T13:09:23.098Z,97296.00
2019-02-22T13:11:54.932Z,97302.00
2019-02-22T13:14:27.308Z,97316.00
2019-02-22T13:16:59.274Z,97312.00
2019-02-22T13:19:31.180Z,97315.00
2019-02-22T13:22:03.303Z,97324.00
2019-02-22T13:24:35.214Z,97329.00
2019-02-22T13:27:07.080Z,97329.00
2019-02-22T13:29:39.804Z,97339.00
2019-02-22T13:32:12.222Z,97330.00
2019-02-22T13:34:44.612Z,97340.00
2019-02-22T13:37:16.461Z,97335.00
2019-02-22T13:39:48.365Z,97341.00
2019-02-22T13:42:20.235Z,97340.00
2019-02-22T13:44:52.412Z,97338.00
2019-02-22T13:47:24.899Z,97335.00
2019-02-22T13:49:57.522Z,97327.00
2019-02-22T13:52:29.994Z,97333.00
2019-02-22T13:55:02.210Z,97339.00
2019-02-22T13:57:34.523Z,97340.00
2019-02-22T14:00:08.131Z,97341.00
2019-02-22T14:02:40.750Z,97340.00
2019-02-22T14:05:12.590Z,97357.00
2019-02-22T14:07:51.971Z,97350.00
2019-02-22T14:10:24.016Z,97354.00
2019-02-22T14:12:55.906Z,97360.00
2019-02-22T14:15:37.514Z,97369.00
2019-02-22T14:18:01.867Z,97377.00
2019-02-22T14:20:34.418Z,97372.00
2019-02-22T14:23:06.370Z,97370.00
2019-02-22T14:25:38.215Z,97369.00
2019-02-22T14:28:12.125Z,97371.00
2019-02-22T14:30:43.936Z,97375.00
2019-02-22T14:33:16.383Z,97374.00
2019-02-22T14:35:48.954Z,97376.00
2019-02-22T14:38:21.003Z,97377.00
2019-02-22T14:40:53.109Z,97375.00
2019-02-22T14:43:25.012Z,97373.00
2019-02-22T14:45:57.138Z,97365.00
2019-02-22T14:48:29.240Z,97361.00
2019-02-22T14:51:01.462Z,97363.00
2019-02-22T14:53:34.074Z,97361.00
2019-02-22T14:56:05.908Z,97365.00
2019-02-22T14:58:38.207Z,97367.00
2019-02-22T15:01:10.094Z,97361.00
2019-02-22T15:03:42.246Z,97364.00
2019-02-22T15:06:14.081Z,97363.00
2019-02-22T15:08:46.099Z,97370.00
2019-02-22T15:11:18.032Z,97380.00
2019-02-22T15:13:49.916Z,97374.00
2019-02-22T15:16:31.586Z,97380.00
2019-02-22T15:19:03.791Z,97388.00
2019-02-22T15:21:35.671Z,97386.00
2019-02-22T15:24:07.670Z,97386.00
2019-02-22T15:26:40.035Z,97385.00
2019-02-22T15:29:12.205Z,97388.00
2019-02-22T15:31:44.041Z,97398.00
2019-02-22T15:34:16.672Z,97394.00
2019-02-22T15:36:48.629Z,97401.00
2019-02-22T15:39:21.087Z,97407.00
2019-02-22T15:41:53.046Z,97406.00
2019-02-22T15:44:25.472Z,97400.00
2019-02-22T15:46:58.402Z,97405.00
2019-02-22T15:49:30.325Z,97396.00
2019-02-22T15:52:02.176Z,97400.00
2019-02-22T15:54:34.166Z,97400.00
2019-02-22T15:57:06.559Z,97403.00
2019-02-22T15:59:38.505Z,97396.00
2019-02-22T16:02:10.488Z,97402.00
2019-02-22T16:04:49.468Z,97401.00
2019-02-22T16:07:21.331Z,97412.00
2019-02-22T16:09:54.080Z,97405.00
2019-02-22T16:12:26.043Z,97397.00
2019-02-22T16:14:58.390Z,97405.00
2019-02-22T16:17:30.661Z,97410.00
2019-02-22T16:20:02.976Z,97410.00
2019-02-22T16:22:34.994Z,97390.00
2019-02-22T16:25:18.580Z,97404.00
2019-02-22T16:27:41.670Z,97410.00
2019-02-22T16:30:15.271Z,97412.00
2019-02-22T16:32:47.408Z,97410.00
2019-02-22T16:35:20.260Z,97418.00
2019-02-22T16:37:52.705Z,97417.00
2019-02-22T16:40:25.313Z,97417.00
2019-02-22T16:42:57.497Z,97427.00
2019-02-22T16:45:30.231Z,97427.00
2019-02-22T16:48:04.113Z,97435.00
2019-02-22T16:50:35.889Z,97434.00
2019-02-22T16:53:08.129Z,97444.00
2019-02-22T16:55:40.650Z,97444.00
2019-02-22T16:58:13.301Z,97439.00
2019-02-22T17:00:45.345Z,97443.00
2019-02-22T17:03:17.203Z,97435.00
2019-02-22T17:05:49.803Z,97449.00
2019-02-22T17:08:22.152Z,97463.00
2019-02-22T17:10:54.325Z,97456.00
2019-02-22T17:13:27.012Z,97461.00
2019-02-22T17:16:02.186Z,97468.00
2019-02-22T17:18:34.317Z,97459.00
2019-02-22T17:21:06.216Z,97462.00
2019-02-22T17:23:38.892Z,97465.00
2019-02-22T17:26:15.922Z,97459.00
2019-02-22T17:28:48.082Z,97463.00
2019-02-22T17:31:20.677Z,97454.00
2019-02-22T17:33:52.614Z,97453.00
2019-02-22T17:36:27.074Z,97448.00
2019-02-22T17:38:58.183Z,97448.00
2019-02-22T17:41:30.107Z,97455.00
2019-02-22T17:44:01.959Z,97468.00
2019-02-22T17:46:33.882Z,97470.00
2019-02-22T17:49:05.719Z,97470.00
2019-02-22T17:51:37.870Z,97469.00
2019-02-22T17:54:11.595Z,97483.00
2019-02-22T17:56:43.494Z,97476.00
2019-02-22T17:59:15.379Z,97475.00
2019-02-22T18:01:47.271Z,97476.00
2019-02-22T18:04:19.404Z,97491.00
2019-02-22T18:06:51.289Z,97484.00
2019-02-22T18:09:23.515Z,97494.00
2019-02-22T18:11:55.475Z,97502.00
2019-02-22T18:14:27.332Z,97495.00
2019-02-22T18:17:08.135Z,97490.00
2019-02-22T18:19:33.056Z,97492.00
2019-02-22T18:22:05.329Z,97496.00
2019-02-22T18:24:37.640Z,97502.00
2019-02-22T18:27:09.825Z,97500.00
2019-02-22T18:29:42.377Z,97492.00
2019-02-22T18:32:15.687Z,97483.00
2019-02-22T18:34:47.660Z,97484.00
2019-02-22T18:37:19.848Z,97493.00
2019-02-22T18:39:51.745Z,97492.00
2019-02-22T18:42:23.916Z,97497.00
2019-02-22T18:44:56.388Z,97487.00
2019-02-22T18:47:28.250Z,97499.00
2019-02-22T18:50:00.242Z,97495.00
2019-02-22T18:52:33.505Z,97509.00
2019-02-22T18:55:05.524Z,97512.00
2019-02-22T18:57:37.506Z,97511.00
2019-02-22T19:00:13.818Z,97509.00
2019-02-22T19:02:45.768Z,97510.00
2019-02-22T19:05:26.793Z,97505.00
2019-02-22T19:07:59.366Z,97511.00
2019-02-22T19:10:31.591Z,97523.00
2019-02-22T19:13:04.027Z,97525.00
2019-02-22T19:15:36.180Z,97528.00
2019-02-22T19:18:08.011Z,97527.00
2019-02-22T19:20:39.911Z,97536.00
2019-02-22T19:23:12.220Z,97536.00
2019-02-22T19:25:44.088Z,97540.00
2019-02-22T19:28:16.061Z,97540.00
2019-02-22T19:30:48.298Z,97534.00
2019-02-22T19:33:20.143Z,97533.00
2019-02-22T19:35:52.006Z,97537.00
2019-02-22T19:38:24.419Z,97543.00
2019-02-22T19:40:57.108Z,97545.00
2019-02-22T19:43:29.954Z,97540.00
2019-02-22T19:46:02.364Z,97541.00
2019-02-22T19:48:34.294Z,97546.00
2019-02-22T19:51:06.583Z,97552.00
2019-02-22T19:53:38.514Z,97548.00
2019-02-22T19:56:10.505Z,97555.00
2019-02-22T19:58:43.273Z,97546.00
2019-02-22T20:01:16.342Z,97550.00
2019-02-22T20:03:48.187Z,97541.00
2019-02-22T20:06:20.187Z,97549.00
2019-02-22T20:08:52.658Z,97561.00
2019-02-22T20:11:24.548Z,97558.00
2019-02-22T20:13:56.812Z,97560.00
2019-02-22T20:16:28.988Z,97565.00
2019-02-22T20:19:01.115Z,97553.00
2019-02-22T20:21:33.132Z,97569.00
2019-02-22T20:24:04.956Z,97570.00
2019-02-22T20:26:37.127Z,97570.00
2019-02-22T20:29:10.179Z,97572.00
2019-02-22T20:31:42.851Z,97572.00
2019-02-22T20:34:15.687Z,97574.00
2019-02-22T20:36:47.601Z,97576.00
2019-02-22T20:39:19.691Z,97586.00
2019-02-22T20:41:51.570Z,97600.00
2019-02-22T20:44:26.930Z,97596.00
2019-02-22T20:46:59.196Z,97595.00
2019-02-22T20:49:31.041Z,97607.00
2019-02-22T20:52:03.473Z,97607.00
2019-02-22T20:54:35.579Z,97593.00
2019-02-22T20:57:07.480Z,97593.00
2019-02-22T20:59:39.356Z,97603.00
2019-02-22T21:02:13.548Z,97607.00
2019-02-22T21:04:45.665Z,97616.00
2019-02-22T21:07:17.965Z,97609.00
2019-02-22T21:09:49.803Z,97617.00
2019-02-22T21:12:22.347Z,97613.00
2019-02-22T21:14:55.830Z,97625.00
2019-02-22T21:17:27.788Z,97617.00
2019-02-22T21:20:04.419Z,97619.00
2019-02-22T21:22:36.828Z,97620.00
2019-02-22T21:25:09.651Z,97615.00
2019-02-22T21:27:41.967Z,97627.00
2019-02-22T21:30:15.202Z,97621.00
2019-02-22T21:32:48.358Z,97623.00
2019-02-22T21:35:20.546Z,97634.00
2019-02-22T21:37:52.756Z,97635.00
2019-02-22T21:40:24.907Z,97641.00
2019-02-22T21:42:57.905Z,97651.00
2019-02-22T21:45:30.187Z,97643.00
2019-02-22T21:48:05.726Z,97643.00
2019-02-22T21:50:37.815Z,97643.00
2019-02-22T21:53:09.970Z,97659.00
2019-02-22T21:55:42.482Z,97654.00
2019-02-22T21:58:14.733Z,97649.00
2019-02-22T22:00:46.955Z,97662.00
2019-02-22T22:03:18.852Z,97662.00
2019-02-22T22:05:50.824Z,97658.00
2019-02-22T22:08:25.215Z,97648.00
2019-02-22T22:10:57.971Z,97659.00
2019-02-22T22:13:30.522Z,97651.00
2019-02-22T22:16:02.347Z,97653.00
2019-02-22T22:18:38.812Z,97643.00
2019-02-22T22:21:09.318Z,97645.00
2019-02-22T22:23:41.460Z,97650.00
2019-02-22T22:26:13.855Z,97656.00
2019-02-22T22:28:46.088Z,97645.00
2019-02-22T22:31:18.032Z,97667.00
2019-02-22T22:33:50.032Z,97656.00
2019-02-22T22:36:22.472Z,97657.00
2019-02-22T22:38:55.108Z,97654.00
2019-02-22T22:41:26.986Z,97652.00
2019-02-22T22:43:58.878Z,97662.00
2019-02-22T22:46:36.852Z,97654.00
2019-02-22T22:49:04.999Z,97661.00
2019-02-22T22:51:36.820Z,97667.00
2019-02-22T22:54:10.204Z,97654.00
2019-02-22T22:56:42.540Z,97649.00
2019-02-22T22:59:15.131Z,97652.00
2019-02-22T23:01:48.732Z,97647.00
2019-02-22T23:04:20.887Z,97645.00
2019-02-22T23:06:53.126Z,97655.00
2019-02-22T23:09:25.128Z,97641.00
2019-02-22T23:11:57.358Z,97649.00
2019-02-22T23:14:29.494Z,97650.00
2019-02-22T23:17:02.053Z,97647.00
2019-02-22T23:19:33.955Z,97642.00
2019-02-22T23:22:06.994Z,97645.00
2019-02-22T23:24:42.764Z,97646.00
2019-02-22T23:27:14.612Z,97648.00
2019-02-22T23:29:46.740Z,97647.00
2019-02-22T23:32:18.693Z,97657.00
2019-02-22T23:34:53.361Z,97648.00
2019-02-22T23:37:28.040Z,97653.00
2019-02-22T23:40:02.206Z,97655.00
2019-02-22T23:42:35.006Z,97643.00
2019-02-22T23:45:07.173Z,97660.00
2019-02-22T23:47:39.309Z,97658.00
2019-02-22T23:50:11.141Z,97660.00
2019-02-22T23:52:43.315Z,97658.00
2019-02-22T23:55:15.137Z,97642.00
2019-02-22T23:57:47.311Z,97650.00
